createdAt,value
2023-02-26T00:00:57.040Z,100836.09
2023-02-26T00:03:23.633Z,100839.75
2023-02-26T00:05:51.404Z,100837.72
2023-02-26T00:08:17.803Z,100843.66
2023-02-26T00:10:44.193Z,100849.56
2023-02-26T00:13:11.491Z,100850.22
2023-02-26T00:15:38.440Z,100856.88
2023-02-26T00:18:07.380Z,100852.16
2023-02-26T00:20:36.364Z,100862.34
2023-02-26T00:23:04.713Z,100861.72
2023-02-26T00:25:31.072Z,100868.91
2023-02-26T00:27:57.942Z,100873.31
2023-02-26T00:30:24.739Z,100875.34
2023-02-26T00:32:51.585Z,100870.53
2023-02-26T00:35:18.536Z,100885.25
2023-02-26T00:37:57.899Z,100887.19
2023-02-26T00:40:34.735Z,100889.53
2023-02-26T00:43:01.774Z,100896.72
2023-02-26T00:45:28.799Z,100906.06
2023-02-26T00:48:07.168Z,100905.88
2023-02-26T00:50:34.851Z,100909.75
2023-02-26T00:53:06.964Z,100914.31
2023-02-26T00:55:34.661Z,100906.50
2023-02-26T00:58:01.072Z,100906.00
2023-02-26T01:00:27.965Z,100914.69
2023-02-26T01:02:55.212Z,100910.63
2023-02-26T01:05:22.382Z,100911.56
2023-02-26T01:07:54.380Z,100912.81
2023-02-26T01:10:21.633Z,100908.13
2023-02-26T01:12:49.830Z,100911.56
2023-02-26T01:15:17.097Z,100915.31
2023-02-26T01:17:49.152Z,100911.66
2023-02-26T01:20:22.049Z,100914.47
2023-02-26T01:22:54.005Z,100915.16
2023-02-26T01:25:25.145Z,100922.44
2023-02-26T01:27:53.778Z,100926.00
2023-02-26T01:30:21.708Z,100924.88
2023-02-26T01:32:53.342Z,100920.72
2023-02-26T01:35:32.342Z,100922.94
2023-02-26T01:38:03.414Z,100929.19
2023-02-26T01:40:45.944Z,100937.84
2023-02-26T01:43:19.693Z,100944.09
2023-02-26T01:45:53.658Z,100943.19
2023-02-26T01:48:34.140Z,100946.84
2023-02-26T01:51:00.553Z,100947.09
2023-02-26T01:53:27.075Z,100954.09
2023-02-26T01:55:56.990Z,100950.59
2023-02-26T01:58:27.755Z,100954.50
2023-02-26T02:00:54.160Z,100969.03
2023-02-26T02:03:22.797Z,100962.38
2023-02-26T02:05:52.107Z,100974.44
2023-02-26T02:08:19.811Z,100975.28
2023-02-26T02:10:48.478Z,100977.53
2023-02-26T02:13:29.828Z,100985.00
2023-02-26T02:16:07.745Z,100992.91
2023-02-26T02:18:43.014Z,100991.38
2023-02-26T02:21:32.805Z,100996.94
2023-02-26T02:24:04.372Z,100999.84
2023-02-26T02:26:55.926Z,101000.78
2023-02-26T02:29:44.159Z,101004.97
2023-02-26T02:32:18.316Z,101001.59
2023-02-26T02:34:48.471Z,101009.84
2023-02-26T02:37:19.360Z,101010.91
2023-02-26T02:39:49.106Z,101015.75
2023-02-26T02:42:23.243Z,101008.78
2023-02-26T02:45:00.864Z,101026.97
2023-02-26T02:47:34.251Z,101024.72
2023-02-26T02:50:07.730Z,101022.56
2023-02-26T02:52:42.556Z,101017.75
2023-02-26T02:55:15.369Z,101023.44
2023-02-26T02:57:47.840Z,101026.31
2023-02-26T03:00:16.578Z,101022.13
2023-02-26T03:02:50.938Z,101025.56
2023-02-26T03:05:17.511Z,101033.22
2023-02-26T03:07:54.024Z,101034.91
2023-02-26T03:10:20.777Z,101032.94
2023-02-26T03:12:47.168Z,101039.22
2023-02-26T03:15:15.235Z,101046.16
2023-02-26T03:17:51.765Z,101053.00
2023-02-26T03:20:25.027Z,101053.72
2023-02-26T03:23:04.443Z,101052.84
2023-02-26T03:25:38.128Z,101055.50
2023-02-26T03:28:10.867Z,101062.00
2023-02-26T03:30:40.196Z,101057.03
2023-02-26T03:33:14.278Z,101063.25
2023-02-26T03:35:48.025Z,101073.50
2023-02-26T03:38:21.657Z,101069.31
2023-02-26T03:40:53.365Z,101075.91
2023-02-26T03:43:24.728Z,101078.63
2023-02-26T03:45:55.421Z,101083.19
2023-02-26T03:48:27.354Z,101091.63
2023-02-26T03:50:58.681Z,101093.13
2023-02-26T03:53:29.031Z,101089.94
2023-02-26T03:56:01.916Z,101098.94
2023-02-26T03:58:28.425Z,101113.09
2023-02-26T04:00:59.248Z,101103.19
2023-02-26T04:03:32.562Z,101107.69
2023-02-26T04:05:59.504Z,101108.00
2023-02-26T04:08:27.095Z,101113.06
2023-02-26T04:10:57.693Z,101124.19
2023-02-26T04:13:24.159Z,101126.19
2023-02-26T04:15:50.542Z,101128.50
2023-02-26T04:18:17.185Z,101121.41
2023-02-26T04:20:44.911Z,101127.94
2023-02-26T04:23:11.656Z,101132.69
2023-02-26T04:25:38.016Z,101140.09
2023-02-26T04:28:04.372Z,101136.50
2023-02-26T04:30:30.742Z,101139.88
2023-02-26T04:32:57.135Z,101143.13
2023-02-26T04:35:23.649Z,101140.00
2023-02-26T04:37:51.345Z,101149.41
2023-02-26T04:40:17.893Z,101152.03
2023-02-26T04:42:47.044Z,101155.50
2023-02-26T04:45:13.973Z,101152.28
2023-02-26T04:47:40.618Z,101164.56
2023-02-26T04:50:08.161Z,101174.56
2023-02-26T04:52:34.526Z,101173.97
2023-02-26T04:55:02.300Z,101179.78
2023-02-26T04:57:28.641Z,101182.94
2023-02-26T04:59:54.990Z,101188.63
2023-02-26T05:02:21.372Z,101188.28
2023-02-26T05:04:47.772Z,101199.38
2023-02-26T05:07:14.140Z,101199.09
2023-02-26T05:09:40.560Z,101191.75
2023-02-26T05:12:08.503Z,101206.75
2023-02-26T05:14:34.855Z,101199.13
2023-02-26T05:17:01.238Z,101205.88
2023-02-26T05:19:27.710Z,101211.28
2023-02-26T05:21:54.064Z,101215.91
2023-02-26T05:24:20.658Z,101213.28
2023-02-26T05:26:47.012Z,101220.16
2023-02-26T05:29:14.673Z,101224.00
2023-02-26T05:31:41.264Z,101232.91
2023-02-26T05:34:07.683Z,101236.50
2023-02-26T05:36:34.034Z,101247.34
2023-02-26T05:39:00.421Z,101250.66
2023-02-26T05:41:26.891Z,101255.41
2023-02-26T05:43:53.251Z,101259.72
2023-02-26T05:46:20.990Z,101258.69
2023-02-26T05:48:47.378Z,101256.44
2023-02-26T05:51:13.769Z,101268.22
2023-02-26T05:53:40.181Z,101266.59
2023-02-26T05:56:07.424Z,101270.72
2023-02-26T05:58:33.785Z,101272.00
2023-02-26T06:01:00.823Z,101277.03
2023-02-26T06:03:28.569Z,101281.31
2023-02-26T06:05:54.995Z,101280.31
2023-02-26T06:08:21.407Z,101281.59
2023-02-26T06:10:47.766Z,101286.38
2023-02-26T06:13:14.113Z,101286.34
2023-02-26T06:15:40.498Z,101299.91
2023-02-26T06:18:06.926Z,101302.31
2023-02-26T06:20:34.995Z,101305.66
2023-02-26T06:23:01.371Z,101311.00
2023-02-26T06:25:27.724Z,101324.69
2023-02-26T06:27:54.090Z,101319.06
2023-02-26T06:30:20.731Z,101327.50
2023-02-26T06:32:47.228Z,101324.16
2023-02-26T06:35:13.671Z,101333.03
2023-02-26T06:37:41.399Z,101331.69
2023-02-26T06:40:09.391Z,101341.56
2023-02-26T06:42:35.961Z,101337.97
2023-02-26T06:45:02.444Z,101342.84
2023-02-26T06:47:28.805Z,101351.28
2023-02-26T06:49:55.147Z,101344.06
2023-02-26T06:52:21.554Z,101350.22
2023-02-26T06:54:49.230Z,101356.44
2023-02-26T06:57:15.580Z,101364.19
2023-02-26T06:59:42.163Z,101364.97
2023-02-26T07:02:16.341Z,101370.59
2023-02-26T07:04:42.732Z,101377.69
2023-02-26T07:07:09.097Z,101373.94
2023-02-26T07:09:35.462Z,101384.41
2023-02-26T07:12:03.759Z,101393.75
2023-02-26T07:14:30.135Z,101398.81
2023-02-26T07:16:56.547Z,101402.22
2023-02-26T07:19:22.978Z,101409.88
2023-02-26T07:21:49.344Z,101416.22
2023-02-26T07:24:15.717Z,101407.09
2023-02-26T07:26:42.127Z,101414.22
2023-02-26T07:29:09.851Z,101411.13
2023-02-26T07:31:36.342Z,101424.88
2023-02-26T07:34:02.883Z,101431.72
2023-02-26T07:36:29.651Z,101428.22
2023-02-26T07:38:56.037Z,101441.19
2023-02-26T07:41:22.543Z,101435.78
2023-02-26T07:43:48.911Z,101441.84
2023-02-26T07:46:16.778Z,101444.06
2023-02-26T07:48:43.227Z,101450.75
2023-02-26T07:51:09.747Z,101449.31
2023-02-26T07:53:36.184Z,101453.31
2023-02-26T07:56:03.285Z,101462.94
2023-02-26T07:58:29.921Z,101473.63
2023-02-26T08:00:58.232Z,101477.63
2023-02-26T08:03:25.996Z,101485.09
2023-02-26T08:05:52.336Z,101479.19
2023-02-26T08:08:18.721Z,101471.66
2023-02-26T08:10:45.088Z,101481.34
2023-02-26T08:13:11.453Z,101484.22
2023-02-26T08:15:37.866Z,101494.00
2023-02-26T08:18:04.361Z,101487.72
2023-02-26T08:20:32.049Z,101488.72
2023-02-26T08:22:58.402Z,101501.50
2023-02-26T08:25:24.762Z,101505.97
2023-02-26T08:27:51.114Z,101505.00
2023-02-26T08:30:18.033Z,101515.72
2023-02-26T08:32:44.531Z,101514.22
2023-02-26T08:35:11.092Z,101522.66
2023-02-26T08:37:38.981Z,101529.38
2023-02-26T08:40:06.747Z,101527.38
2023-02-26T08:42:33.157Z,101532.22
2023-02-26T08:44:59.494Z,101537.78
2023-02-26T08:47:29.043Z,101537.78
2023-02-26T08:49:55.704Z,101542.91
2023-02-26T08:52:22.352Z,101543.81
2023-02-26T08:54:50.366Z,101545.63
2023-02-26T08:57:16.944Z,101540.22
2023-02-26T08:59:43.329Z,101557.03
2023-02-26T09:02:11.093Z,101561.53
2023-02-26T09:04:37.524Z,101557.59
2023-02-26T09:07:04.333Z,101566.84
2023-02-26T09:09:30.857Z,101567.41
2023-02-26T09:11:58.578Z,101572.28
2023-02-26T09:14:25.114Z,101580.31
2023-02-26T09:16:51.470Z,101572.34
2023-02-26T09:19:17.893Z,101569.91
2023-02-26T09:21:44.272Z,101576.66
2023-02-26T09:24:10.673Z,101572.88
2023-02-26T09:26:37.034Z,101579.53
2023-02-26T09:29:04.851Z,101576.50
2023-02-26T09:31:31.688Z,101581.78
2023-02-26T09:33:58.113Z,101579.84
2023-02-26T09:36:24.802Z,101581.53
2023-02-26T09:38:51.330Z,101583.81
2023-02-26T09:41:24.041Z,101589.47
2023-02-26T09:44:15.891Z,101594.47
2023-02-26T09:46:51.566Z,101590.66
2023-02-26T09:49:26.786Z,101591.59
2023-02-26T09:51:57.515Z,101589.63
2023-02-26T09:54:26.799Z,101592.81
2023-02-26T09:56:56.679Z,101595.28
2023-02-26T09:59:25.856Z,101608.66
2023-02-26T10:01:59.799Z,101605.97
2023-02-26T10:04:50.322Z,101601.53
2023-02-26T10:07:29.554Z,101611.28
2023-02-26T10:10:17.983Z,101607.66
2023-02-26T10:12:46.280Z,101617.59
2023-02-26T10:15:19.576Z,101615.47
2023-02-26T10:17:57.705Z,101625.00
2023-02-26T10:20:29.174Z,101629.13
2023-02-26T10:23:02.321Z,101629.34
2023-02-26T10:25:33.246Z,101637.06
2023-02-26T10:28:04.028Z,101629.78
2023-02-26T10:30:37.357Z,101635.84
2023-02-26T10:33:13.694Z,101625.91
2023-02-26T10:35:47.196Z,101632.78
2023-02-26T10:38:17.035Z,101628.59
2023-02-26T10:40:49.514Z,101632.03
2023-02-26T10:43:20.726Z,101634.25
2023-02-26T10:45:59.554Z,101636.81
2023-02-26T10:48:45.955Z,101633.75
2023-02-26T10:51:14.906Z,101640.03
2023-02-26T10:53:45.109Z,101641.50
2023-02-26T10:56:15.537Z,101636.75
2023-02-26T10:58:41.956Z,101648.66
2023-02-26T11:01:17.216Z,101640.78
2023-02-26T11:03:47.061Z,101642.22
2023-02-26T11:06:20.364Z,101655.34
2023-02-26T11:08:51.115Z,101643.63
2023-02-26T11:11:36.634Z,101659.47
2023-02-26T11:14:03.394Z,101657.16
2023-02-26T11:16:31.970Z,101651.16
2023-02-26T11:19:00.180Z,101662.44
2023-02-26T11:21:29.324Z,101655.81
2023-02-26T11:24:01.661Z,101661.44
2023-02-26T11:26:32.569Z,101666.38
2023-02-26T11:28:59.085Z,101662.94
2023-02-26T11:31:27.368Z,101664.97
2023-02-26T11:34:01.828Z,101667.19
2023-02-26T11:36:30.567Z,101661.34
2023-02-26T11:38:58.571Z,101666.94
2023-02-26T11:41:27.806Z,101669.22
2023-02-26T11:44:01.132Z,101665.84
2023-02-26T11:46:28.124Z,101665.38
2023-02-26T11:48:59.883Z,101670.44
2023-02-26T11:51:29.104Z,101667.16
2023-02-26T11:53:57.884Z,101661.97
2023-02-26T11:56:29.370Z,101661.53
2023-02-26T11:59:00.468Z,101662.44
2023-02-26T12:01:28.949Z,101659.56
2023-02-26T12:03:59.427Z,101665.78
2023-02-26T12:06:25.971Z,101667.63
2023-02-26T12:08:52.753Z,101663.72
2023-02-26T12:11:38.602Z,101662.53
2023-02-26T12:14:17.535Z,101666.88
2023-02-26T12:16:55.490Z,101664.06
2023-02-26T12:19:35.026Z,101658.00
2023-02-26T12:22:26.974Z,101660.13
2023-02-26T12:25:05.647Z,101663.94
2023-02-26T12:27:44.262Z,101658.25
2023-02-26T12:30:40.581Z,101661.59
2023-02-26T12:33:18.237Z,101650.81
2023-02-26T12:36:04.924Z,101664.22
2023-02-26T12:38:41.611Z,101667.78
2023-02-26T12:41:22.252Z,101664.81
2023-02-26T12:43:50.657Z,101664.16
2023-02-26T12:46:40.282Z,101662.72
2023-02-26T12:49:46.196Z,101670.09
2023-02-26T12:52:32.480Z,101657.28
2023-02-26T12:55:18.337Z,101660.06
2023-02-26T12:57:54.061Z,101663.03
2023-02-26T13:00:38.997Z,101661.13
2023-02-26T13:03:35.459Z,101669.84
2023-02-26T13:06:25.969Z,101659.38
2023-02-26T13:09:01.566Z,101654.59
2023-02-26T13:11:50.022Z,101647.84
2023-02-26T13:14:31.605Z,101663.47
2023-02-26T13:17:06.538Z,101658.38
2023-02-26T13:19:40.717Z,101657.91
2023-02-26T13:22:15.747Z,101650.25
2023-02-26T13:24:48.370Z,101647.38
2023-02-26T13:27:16.670Z,101645.66
2023-02-26T13:29:48.116Z,101650.09
2023-02-26T13:32:19.431Z,101651.00
2023-02-26T13:34:49.925Z,101652.53
2023-02-26T13:37:23.983Z,101657.50
2023-02-26T13:40:02.581Z,101656.69
2023-02-26T13:42:37.828Z,101646.03
2023-02-26T13:45:20.963Z,101657.53
2023-02-26T13:47:58.053Z,101655.13
2023-02-26T13:50:33.774Z,101650.88
2023-02-26T13:53:03.651Z,101659.31
2023-02-26T13:55:44.542Z,101651.31
2023-02-26T13:58:29.545Z,101650.59
2023-02-26T14:01:06.625Z,101654.19
2023-02-26T14:03:34.711Z,101654.56
2023-02-26T14:06:20.799Z,101650.63
2023-02-26T14:08:50.272Z,101652.97
2023-02-26T14:11:46.105Z,101649.72
2023-02-26T14:14:18.627Z,101643.75
2023-02-26T14:16:49.733Z,101650.78
2023-02-26T14:19:27.273Z,101649.97
2023-02-26T14:21:54.662Z,101654.06
2023-02-26T14:24:25.123Z,101646.44
2023-02-26T14:27:21.478Z,101646.03
2023-02-26T14:29:59.557Z,101653.56
2023-02-26T14:32:30.526Z,101661.53
2023-02-26T14:35:02.829Z,101668.53
2023-02-26T14:37:30.690Z,101657.19
2023-02-26T14:40:02.872Z,101664.16
2023-02-26T14:42:35.125Z,101657.38
2023-02-26T14:45:10.396Z,101655.88
2023-02-26T14:47:37.577Z,101660.16
2023-02-26T14:50:06.631Z,101660.84
2023-02-26T14:52:58.400Z,101658.56
2023-02-26T14:55:41.598Z,101656.63
2023-02-26T14:58:27.924Z,101660.97
2023-02-26T15:01:16.015Z,101660.25
2023-02-26T15:04:04.057Z,101664.50
2023-02-26T15:06:54.013Z,101669.56
2023-02-26T15:09:27.414Z,101663.06
2023-02-26T15:12:09.066Z,101659.31
2023-02-26T15:15:11.326Z,101665.84
2023-02-26T15:17:58.169Z,101669.00
2023-02-26T15:20:35.365Z,101670.38
2023-02-26T15:23:15.672Z,101667.06
2023-02-26T15:25:45.027Z,101675.19
2023-02-26T15:28:16.882Z,101674.94
2023-02-26T15:30:48.505Z,101676.91
2023-02-26T15:33:16.064Z,101679.03
2023-02-26T15:35:43.284Z,101678.19
2023-02-26T15:38:10.521Z,101682.38
2023-02-26T15:40:37.614Z,101687.88
2023-02-26T15:43:05.913Z,101684.19
2023-02-26T15:45:34.571Z,101691.13
2023-02-26T15:48:05.469Z,101693.63
2023-02-26T15:50:35.017Z,101688.47
2023-02-26T15:53:03.971Z,101685.34
2023-02-26T15:55:34.206Z,101688.84
2023-02-26T15:58:00.977Z,101685.38
2023-02-26T16:00:27.746Z,101697.31
2023-02-26T16:02:55.958Z,101691.69
2023-02-26T16:05:25.977Z,101699.97
2023-02-26T16:07:52.518Z,101697.22
2023-02-26T16:10:29.051Z,101699.50
2023-02-26T16:12:55.660Z,101703.44
2023-02-26T16:15:29.500Z,101704.50
2023-02-26T16:17:56.241Z,101703.84
2023-02-26T16:20:27.429Z,101707.38
2023-02-26T16:22:56.436Z,101706.97
2023-02-26T16:25:25.730Z,101706.28
2023-02-26T16:27:58.839Z,101709.28
2023-02-26T16:30:31.360Z,101715.63
2023-02-26T16:32:59.282Z,101722.91
2023-02-26T16:35:31.874Z,101721.56
2023-02-26T16:37:58.250Z,101719.09
2023-02-26T16:40:26.932Z,101723.63
2023-02-26T16:42:59.720Z,101728.91
2023-02-26T16:45:43.974Z,101727.59
2023-02-26T16:48:15.244Z,101737.03
2023-02-26T16:50:43.300Z,101736.69
2023-02-26T16:53:18.457Z,101748.28
2023-02-26T16:55:52.049Z,101746.34
2023-02-26T16:58:20.190Z,101758.31
2023-02-26T17:00:55.198Z,101763.00
2023-02-26T17:03:24.535Z,101769.41
2023-02-26T17:05:55.824Z,101769.69
2023-02-26T17:08:27.117Z,101766.94
2023-02-26T17:11:00.002Z,101777.47
2023-02-26T17:13:28.989Z,101778.28
2023-02-26T17:15:59.524Z,101780.34
2023-02-26T17:18:26.197Z,101780.47
2023-02-26T17:20:54.894Z,101795.75
2023-02-26T17:23:23.318Z,101794.09
2023-02-26T17:25:54.801Z,101797.28
2023-02-26T17:28:23.518Z,101800.19
2023-02-26T17:30:50.098Z,101801.84
2023-02-26T17:33:16.656Z,101798.75
2023-02-26T17:35:43.560Z,101802.69
2023-02-26T17:38:11.918Z,101794.22
2023-02-26T17:40:39.405Z,101806.75
2023-02-26T17:43:06.784Z,101807.94
2023-02-26T17:45:34.566Z,101806.44
2023-02-26T17:48:01.374Z,101810.31
2023-02-26T17:50:35.161Z,101815.09
2023-02-26T17:53:01.665Z,101822.34
2023-02-26T17:55:29.588Z,101822.31
2023-02-26T17:57:56.530Z,101820.06
2023-02-26T18:00:24.197Z,101830.69
2023-02-26T18:02:51.221Z,101836.09
2023-02-26T18:05:17.917Z,101832.94
2023-02-26T18:07:45.016Z,101836.88
2023-02-26T18:10:17.134Z,101841.19
2023-02-26T18:12:44.930Z,101838.22
2023-02-26T18:15:12.029Z,101835.09
2023-02-26T18:17:38.393Z,101842.72
2023-02-26T18:20:06.222Z,101841.16
2023-02-26T18:22:32.606Z,101849.19
2023-02-26T18:24:58.994Z,101838.53
2023-02-26T18:27:26.791Z,101853.72
2023-02-26T18:29:54.506Z,101844.59
2023-02-26T18:32:23.272Z,101847.63
2023-02-26T18:34:50.466Z,101849.44
2023-02-26T18:37:19.956Z,101843.97
2023-02-26T18:39:46.619Z,101851.84
2023-02-26T18:42:20.135Z,101850.56
2023-02-26T18:44:46.981Z,101848.13
2023-02-26T18:47:14.959Z,101854.88
2023-02-26T18:49:41.900Z,101852.88
2023-02-26T18:52:08.395Z,101854.69
2023-02-26T18:54:34.803Z,101856.72
2023-02-26T18:57:01.178Z,101852.53
2023-02-26T18:59:27.588Z,101851.22
2023-02-26T19:01:54.023Z,101855.16
2023-02-26T19:04:21.744Z,101855.25
2023-02-26T19:06:48.170Z,101850.59
2023-02-26T19:09:14.545Z,101858.78
2023-02-26T19:11:40.937Z,101864.13
2023-02-26T19:14:07.321Z,101857.03
2023-02-26T19:16:33.686Z,101867.59
2023-02-26T19:19:00.114Z,101863.09
2023-02-26T19:21:27.996Z,101872.38
2023-02-26T19:23:54.523Z,101876.38
2023-02-26T19:26:20.937Z,101876.97
2023-02-26T19:28:47.289Z,101880.09
2023-02-26T19:31:13.881Z,101883.78
2023-02-26T19:33:41.013Z,101888.66
2023-02-26T19:36:08.201Z,101896.16
2023-02-26T19:38:35.971Z,101888.88
2023-02-26T19:41:02.338Z,101890.88
2023-02-26T19:43:28.742Z,101883.16
2023-02-26T19:45:55.124Z,101898.53
2023-02-26T19:48:21.731Z,101890.69
2023-02-26T19:50:48.325Z,101903.25
2023-02-26T19:53:14.776Z,101915.19
2023-02-26T19:55:42.585Z,101905.84
2023-02-26T19:58:08.988Z,101906.22
2023-02-26T20:00:35.345Z,101905.84
2023-02-26T20:03:01.784Z,101919.13
2023-02-26T20:05:28.206Z,101917.66
2023-02-26T20:07:54.566Z,101911.16
2023-02-26T20:10:20.955Z,101918.22
2023-02-26T20:12:48.805Z,101931.78
2023-02-26T20:15:15.517Z,101918.31
2023-02-26T20:17:41.971Z,101927.03
2023-02-26T20:20:09.744Z,101928.31
2023-02-26T20:22:36.234Z,101939.38
2023-02-26T20:25:02.740Z,101930.22
2023-02-26T20:27:29.127Z,101924.56
2023-02-26T20:29:56.822Z,101936.69
2023-02-26T20:32:23.288Z,101944.75
2023-02-26T20:34:49.736Z,101947.19
2023-02-26T20:37:16.102Z,101952.09
2023-02-26T20:39:42.668Z,101959.09
2023-02-26T20:42:09.239Z,101964.44
2023-02-26T20:44:35.610Z,101972.34
2023-02-26T20:47:03.709Z,101963.22
2023-02-26T20:49:30.481Z,101976.66
2023-02-26T20:51:57.172Z,101970.81
2023-02-26T20:54:23.635Z,101967.09
2023-02-26T20:56:50.286Z,101980.06
2023-02-26T20:59:17.263Z,101977.69
2023-02-26T21:01:43.666Z,101979.63
2023-02-26T21:04:11.853Z,101977.63
2023-02-26T21:06:38.253Z,101983.00
2023-02-26T21:09:05.784Z,101979.31
2023-02-26T21:11:34.555Z,101978.88
2023-02-26T21:14:03.661Z,101975.03
2023-02-26T21:16:30.310Z,101984.56
2023-02-26T21:18:57.373Z,101985.22
2023-02-26T21:21:25.069Z,101985.84
2023-02-26T21:23:52.040Z,101988.94
2023-02-26T21:26:18.554Z,101991.50
2023-02-26T21:28:45.032Z,101997.13
2023-02-26T21:31:11.475Z,101992.78
2023-02-26T21:33:37.906Z,102001.69
2023-02-26T21:36:04.587Z,102002.81
2023-02-26T21:38:32.312Z,102002.41
2023-02-26T21:40:58.682Z,102005.13
2023-02-26T21:43:25.048Z,101998.19
2023-02-26T21:45:51.502Z,102014.19
2023-02-26T21:48:17.863Z,102000.78
2023-02-26T21:50:44.226Z,102004.19
2023-02-26T21:53:10.634Z,102002.25
2023-02-26T21:55:38.311Z,102010.84
2023-02-26T21:58:04.755Z,102013.53
2023-02-26T22:00:31.274Z,102013.94
2023-02-26T22:02:57.769Z,102016.13
2023-02-26T22:05:24.117Z,102014.09
2023-02-26T22:07:50.498Z,102008.75
2023-02-26T22:10:17.046Z,102009.56
2023-02-26T22:12:44.799Z,102016.56
2023-02-26T22:15:11.633Z,102011.72
2023-02-26T22:17:38.033Z,102005.91
2023-02-26T22:20:05.469Z,102020.22
2023-02-26T22:22:31.977Z,102013.84
2023-02-26T22:24:58.389Z,102018.31
2023-02-26T22:27:24.753Z,102015.56
2023-02-26T22:29:52.500Z,102021.34
2023-02-26T22:32:18.915Z,102020.53
2023-02-26T22:34:46.244Z,102023.47
2023-02-26T22:37:12.738Z,102032.03
2023-02-26T22:39:39.134Z,102023.69
2023-02-26T22:42:05.596Z,102022.19
2023-02-26T22:44:32.218Z,102031.97
2023-02-26T22:47:00.014Z,102025.13
2023-02-26T22:49:26.555Z,102035.47
2023-02-26T22:51:53.033Z,102030.00
2023-02-26T22:54:19.547Z,102036.19
2023-02-26T22:56:45.973Z,102028.34
2023-02-26T22:59:12.378Z,102033.00
2023-02-26T23:01:39.076Z,102038.72
2023-02-26T23:04:07.067Z,102039.97
2023-02-26T23:06:33.478Z,102034.66
2023-02-26T23:08:59.844Z,102046.31
2023-02-26T23:11:26.437Z,102046.28
2023-02-26T23:13:53.060Z,102050.31
2023-02-26T23:16:19.462Z,102042.88
2023-02-26T23:18:45.888Z,102044.59
2023-02-26T23:21:14.512Z,102053.50
2023-02-26T23:23:41.099Z,102056.66
2023-02-26T23:26:07.666Z,102050.06
2023-02-26T23:28:34.077Z,102051.78
2023-02-26T23:31:00.578Z,102039.13
2023-02-26T23:33:27.021Z,102053.44
2023-02-26T23:35:53.427Z,102054.94
2023-02-26T23:38:21.145Z,102041.03
2023-02-26T23:40:47.501Z,102054.50
2023-02-26T23:43:13.869Z,102061.69
2023-02-26T23:45:40.238Z,102066.97
2023-02-26T23:48:06.957Z,102064.63
2023-02-26T23:50:33.377Z,102065.84
2023-02-26T23:52:59.813Z,102065.47
2023-02-26T23:55:27.535Z,102069.06
2023-02-26T23:57:53.929Z,102069.69
